Terminal Aerodrome Forecast
Issued by NWS

Home | Current Version | Previous Version | Text Only | Print | Product List | Glossary Off
Versions: 1 2 3 4 5 6 7 8 9 10 11 12 13

000
FTUS43 KMPX 232320
TAFAXN
TAF
KAXN 232320Z 2400/2424 02008KT P6SM BKN070
     FM240900 01005KT P6SM SCT015 BKN025
     FM241600 07006KT P6SM SCT025 BKN050
     FM241900 11007KT P6SM SCT050=

USA.gov is the U.S. government's official web portal to all federal, state and local government web resources and services.